createdAt,value
2022-08-17T00:00:05.802Z,65.30
2022-08-17T00:03:01.433Z,65.30
2022-08-17T00:05:44.758Z,65.20
2022-08-17T00:08:14.748Z,65.40
2022-08-17T00:10:43.099Z,65.40
2022-08-17T00:13:18.925Z,65.40
2022-08-17T00:15:46.127Z,65.40
2022-08-17T00:19:01.010Z,65.30
2022-08-17T00:21:03.284Z,65.30
2022-08-17T00:23:30.815Z,65.50
2022-08-17T00:25:58.012Z,65.40
2022-08-17T00:28:25.342Z,65.40
2022-08-17T00:30:53.817Z,66.00
2022-08-17T00:33:25.886Z,65.40
2022-08-17T00:35:53.851Z,65.50
2022-08-17T00:38:22.058Z,65.70
2022-08-17T00:40:55.761Z,65.70
2022-08-17T00:43:48.233Z,65.80
2022-08-17T00:46:23.268Z,65.80
2022-08-17T00:48:51.076Z,66.00
2022-08-17T00:51:30.111Z,66.10
2022-08-17T00:54:23.463Z,66.20
2022-08-17T00:57:45.871Z,66.20
2022-08-17T01:00:19.557Z,66.20
2022-08-17T01:02:51.228Z,66.40
2022-08-17T01:05:23.659Z,66.50
2022-08-17T01:07:53.628Z,66.50
2022-08-17T01:10:58.348Z,66.50
2022-08-17T01:13:18.133Z,66.60
2022-08-17T01:15:59.528Z,66.60
2022-08-17T01:18:27.634Z,66.70
2022-08-17T01:20:56.330Z,66.70
2022-08-17T01:23:25.845Z,66.80
2022-08-17T01:25:56.442Z,66.80
2022-08-17T01:28:53.018Z,66.90
2022-08-17T01:31:12.935Z,67.00
2022-08-17T01:33:39.903Z,67.00
2022-08-17T01:36:07.712Z,66.90
2022-08-17T01:38:36.519Z,67.00
2022-08-17T01:41:11.266Z,67.00
2022-08-17T01:43:50.989Z,67.00
2022-08-17T01:46:24.942Z,67.00
2022-08-17T01:48:52.188Z,67.10
2022-08-17T01:51:20.020Z,67.00
2022-08-17T01:53:53.336Z,67.10
2022-08-17T01:56:24.608Z,67.30
2022-08-17T01:58:53.281Z,67.40
2022-08-17T02:01:24.767Z,67.40
2022-08-17T02:03:59.162Z,67.60
2022-08-17T02:06:44.986Z,67.60
2022-08-17T02:09:16.580Z,67.70
2022-08-17T02:11:45.298Z,67.70
2022-08-17T02:14:13.959Z,67.80
2022-08-17T02:16:41.949Z,67.80
2022-08-17T02:19:12.958Z,67.80
2022-08-17T02:21:42.969Z,68.00
2022-08-17T02:24:15.595Z,68.00
2022-08-17T02:26:42.887Z,68.10
2022-08-17T02:29:09.912Z,68.10
2022-08-17T02:31:37.859Z,68.10
2022-08-17T02:34:05.421Z,68.20
2022-08-17T02:36:36.389Z,68.30
2022-08-17T02:39:06.094Z,68.30
2022-08-17T02:41:33.632Z,68.50
2022-08-17T02:44:01.183Z,68.70
2022-08-17T02:46:28.397Z,68.70
2022-08-17T02:48:55.762Z,68.80
2022-08-17T02:51:22.928Z,68.90
2022-08-17T02:53:49.965Z,69.00
2022-08-17T02:56:17.371Z,68.90
2022-08-17T02:58:44.461Z,69.10
2022-08-17T03:01:12.763Z,69.20
2022-08-17T03:03:40.297Z,69.20
2022-08-17T03:06:08.076Z,69.20
2022-08-17T03:08:37.481Z,69.20
2022-08-17T03:11:05.009Z,69.30
2022-08-17T03:13:32.081Z,69.30
2022-08-17T03:15:59.049Z,69.20
2022-08-17T03:18:28.012Z,69.20
2022-08-17T03:20:57.496Z,69.20
2022-08-17T03:23:25.800Z,69.20
2022-08-17T03:25:54.201Z,69.20
2022-08-17T03:28:22.481Z,69.30
2022-08-17T03:30:51.235Z,69.30
2022-08-17T03:33:19.645Z,70.00
2022-08-17T03:35:47.171Z,69.40
2022-08-17T03:38:17.139Z,69.50
2022-08-17T03:40:58.663Z,69.60
2022-08-17T03:43:29.755Z,69.60
2022-08-17T03:46:28.486Z,69.70
2022-08-17T03:49:23.390Z,70.40
2022-08-17T03:52:09.109Z,69.90
2022-08-17T03:54:54.908Z,69.70
2022-08-17T03:57:22.134Z,69.70
2022-08-17T03:59:49.609Z,70.30
2022-08-17T04:02:22.900Z,69.60
2022-08-17T04:04:51.075Z,69.60
2022-08-17T04:07:23.449Z,69.50
2022-08-17T04:09:51.165Z,69.40
2022-08-17T04:12:20.209Z,69.30
2022-08-17T04:14:53.619Z,69.20
2022-08-17T04:17:27.559Z,69.20
2022-08-17T04:19:55.522Z,69.10
2022-08-17T04:22:33.319Z,69.00
2022-08-17T04:25:19.216Z,68.80
2022-08-17T04:27:46.178Z,68.50
2022-08-17T04:30:13.593Z,68.50
2022-08-17T04:33:17.141Z,68.40
2022-08-17T04:35:50.030Z,68.40
2022-08-17T04:38:22.792Z,68.30
2022-08-17T04:41:16.390Z,68.90
2022-08-17T04:43:45.317Z,68.10
2022-08-17T04:46:21.030Z,68.10
2022-08-17T04:48:50.848Z,67.90
2022-08-17T04:51:23.102Z,67.90
2022-08-17T04:53:54.983Z,67.80
2022-08-17T04:56:25.079Z,67.80
2022-08-17T04:58:54.487Z,67.70
2022-08-17T05:01:24.570Z,67.60
2022-08-17T05:03:56.886Z,67.50
2022-08-17T05:06:23.826Z,67.40
2022-08-17T05:08:51.050Z,67.40
2022-08-17T05:11:18.491Z,67.40
2022-08-17T05:13:45.524Z,67.30
2022-08-17T05:16:12.898Z,67.30
2022-08-17T05:18:39.980Z,67.20
2022-08-17T05:21:07.257Z,67.00
2022-08-17T05:23:42.429Z,67.00
2022-08-17T05:26:25.925Z,66.90
2022-08-17T05:28:57.145Z,66.80
2022-08-17T05:31:28.083Z,66.90
2022-08-17T05:33:57.953Z,67.00
2022-08-17T05:36:37.870Z,67.20
2022-08-17T05:39:13.482Z,67.30
2022-08-17T05:41:44.633Z,67.40
2022-08-17T05:44:11.627Z,67.50
2022-08-17T05:46:43.577Z,67.60
2022-08-17T05:49:23.152Z,67.60
2022-08-17T05:52:30.584Z,67.60
2022-08-17T05:55:33.269Z,67.60
2022-08-17T05:58:18.956Z,67.60
2022-08-17T06:01:12.185Z,67.70
2022-08-17T06:04:15.883Z,67.50
2022-08-17T06:07:11.988Z,67.50
2022-08-17T06:09:47.720Z,67.50
2022-08-17T06:12:49.249Z,67.50
2022-08-17T06:15:51.512Z,67.40
2022-08-17T06:18:20.715Z,67.40
2022-08-17T06:20:56.365Z,67.40
2022-08-17T06:23:46.980Z,67.40
2022-08-17T06:26:20.660Z,67.50
2022-08-17T06:31:43.992Z,67.60
2022-08-17T06:34:12.963Z,67.80
2022-08-17T06:37:05.902Z,68.10
2022-08-17T06:39:47.192Z,68.20
2022-08-17T06:42:58.809Z,68.60
2022-08-17T06:45:28.879Z,68.60
2022-08-17T06:48:06.191Z,68.50
2022-08-17T06:50:46.680Z,68.40
2022-08-17T06:53:22.814Z,68.30
2022-08-17T06:56:06.787Z,68.40
2022-08-17T06:58:35.788Z,68.40
2022-08-17T07:01:14.921Z,68.50
2022-08-17T07:04:11.628Z,68.60
2022-08-17T07:06:46.909Z,68.60
2022-08-17T07:09:23.353Z,68.80
2022-08-17T07:12:04.719Z,69.10
2022-08-17T07:15:13.919Z,69.10
2022-08-17T07:17:47.959Z,69.20
2022-08-17T07:20:20.570Z,69.50
2022-08-17T07:23:22.971Z,69.70
2022-08-17T07:25:50.277Z,70.10
2022-08-17T07:28:22.973Z,70.50
2022-08-17T07:30:54.734Z,70.80
2022-08-17T07:33:27.091Z,71.10
2022-08-17T07:35:57.353Z,71.50
2022-08-17T07:38:30.690Z,71.70
2022-08-17T07:40:58.022Z,72.00
2022-08-17T07:43:29.563Z,72.00
2022-08-17T07:46:42.107Z,72.40
2022-08-17T07:49:09.064Z,72.50
2022-08-17T07:51:47.966Z,72.50
2022-08-17T07:54:32.705Z,72.60
2022-08-17T07:57:08.677Z,72.70
2022-08-17T07:59:38.628Z,72.80
2022-08-17T08:02:14.964Z,72.90
2022-08-17T08:05:00.740Z,72.90
2022-08-17T08:07:50.542Z,72.90
2022-08-17T08:10:35.657Z,72.90
2022-08-17T08:13:21.089Z,73.00
2022-08-17T08:15:54.785Z,72.90
2022-08-17T08:18:39.698Z,72.80
2022-08-17T08:21:43.464Z,72.80
2022-08-17T08:24:31.775Z,72.70
2022-08-17T08:27:07.164Z,72.50
2022-08-17T08:29:55.384Z,72.50
2022-08-17T08:32:34.333Z,72.30
2022-08-17T08:35:23.101Z,72.10
2022-08-17T08:38:14.765Z,71.80
2022-08-17T08:41:00.559Z,71.40
2022-08-17T08:43:40.543Z,71.20
2022-08-17T08:46:19.550Z,70.70
2022-08-17T08:49:11.826Z,70.40
2022-08-17T08:52:00.453Z,70.10
2022-08-17T08:54:34.553Z,69.90
2022-08-17T08:57:29.415Z,69.90
2022-08-17T09:00:10.034Z,69.80
2022-08-17T09:02:55.544Z,69.60
2022-08-17T09:05:31.037Z,69.50
2022-08-17T09:07:58.868Z,69.60
2022-08-17T09:10:29.837Z,69.60
2022-08-17T09:13:15.945Z,69.60
2022-08-17T09:15:50.222Z,69.40
2022-08-17T09:19:03.121Z,69.50
2022-08-17T09:21:33.653Z,69.40
2022-08-17T09:24:28.020Z,69.60
2022-08-17T09:27:04.495Z,69.70
2022-08-17T09:29:36.986Z,69.80
2022-08-17T09:32:24.191Z,69.90
2022-08-17T09:34:59.973Z,69.70
2022-08-17T09:37:37.631Z,69.60
2022-08-17T09:40:31.969Z,69.30
2022-08-17T09:43:11.390Z,69.20
2022-08-17T09:45:50.935Z,68.70
2022-08-17T09:48:24.523Z,68.50
2022-08-17T09:51:21.106Z,68.40
2022-08-17T09:53:54.397Z,69.00
2022-08-17T09:56:21.855Z,68.40
2022-08-17T09:59:20.134Z,68.40
2022-08-17T10:02:19.486Z,68.00
2022-08-17T10:04:58.798Z,67.90
2022-08-17T10:08:01.062Z,67.80
2022-08-17T10:11:10.324Z,67.70
2022-08-17T10:14:36.928Z,67.60
2022-08-17T10:17:33.321Z,67.40
2022-08-17T10:20:15.869Z,67.40
2022-08-17T10:23:07.356Z,67.20
2022-08-17T10:26:13.775Z,67.30
2022-08-17T10:28:50.489Z,67.10
2022-08-17T10:31:54.915Z,66.90
2022-08-17T10:34:41.546Z,67.00
2022-08-17T10:40:58.891Z,66.60
2022-08-17T10:44:40.203Z,66.50
2022-08-17T10:47:18.290Z,66.50
2022-08-17T10:49:56.247Z,66.70
2022-08-17T10:52:24.942Z,66.70
2022-08-17T10:54:58.264Z,66.60
2022-08-17T10:57:45.180Z,66.90
2022-08-17T11:00:35.266Z,67.00
2022-08-17T11:03:14.704Z,67.30
2022-08-17T11:05:52.513Z,67.40
2022-08-17T11:08:38.461Z,67.50
2022-08-17T11:11:37.834Z,67.40
2022-08-17T11:14:14.303Z,67.40
2022-08-17T11:16:41.295Z,67.60
2022-08-17T11:19:32.463Z,67.60
2022-08-17T11:22:37.387Z,67.70
2022-08-17T11:25:38.469Z,67.80
2022-08-17T11:28:18.226Z,68.10
2022-08-17T11:30:51.032Z,68.80
2022-08-17T11:33:30.425Z,69.70
2022-08-17T11:36:42.492Z,70.40
2022-08-17T11:39:36.990Z,71.20
2022-08-17T11:42:20.587Z,72.40
2022-08-17T11:45:14.011Z,73.70
2022-08-17T11:48:28.578Z,74.80
2022-08-17T11:51:33.483Z,75.70
2022-08-17T11:54:34.435Z,76.30
2022-08-17T11:57:27.868Z,77.20
2022-08-17T11:59:55.626Z,76.60
2022-08-17T12:02:31.595Z,76.40
2022-08-17T12:05:14.216Z,76.40
2022-08-17T12:07:50.073Z,76.30
2022-08-17T12:10:21.773Z,76.50
2022-08-17T12:12:52.295Z,76.80
2022-08-17T12:15:31.089Z,77.20
2022-08-17T12:17:58.859Z,77.40
2022-08-17T12:20:37.193Z,77.80
2022-08-17T12:23:28.803Z,78.50
2022-08-17T12:26:01.780Z,78.80
2022-08-17T12:28:35.197Z,79.20
2022-08-17T12:31:11.822Z,79.50
2022-08-17T12:33:43.491Z,79.70
2022-08-17T12:36:19.747Z,80.00
2022-08-17T12:39:14.228Z,80.20
2022-08-17T12:41:48.221Z,80.50
2022-08-17T12:44:29.058Z,80.90
2022-08-17T12:47:04.899Z,81.10
2022-08-17T12:49:37.666Z,81.10
2022-08-17T12:52:23.708Z,80.80
2022-08-17T12:54:53.833Z,80.60
2022-08-17T12:57:33.210Z,80.50
2022-08-17T13:00:16.232Z,80.60
2022-08-17T13:02:59.827Z,80.70
2022-08-17T13:05:42.902Z,80.80
2022-08-17T13:08:20.149Z,80.90
2022-08-17T13:11:09.420Z,80.90
2022-08-17T13:13:39.502Z,80.90
2022-08-17T13:16:16.993Z,81.20
2022-08-17T13:18:44.055Z,81.40
2022-08-17T13:21:18.988Z,81.40
2022-08-17T13:24:00.767Z,81.50
2022-08-17T13:26:44.815Z,81.70
2022-08-17T13:29:28.619Z,81.90
2022-08-17T13:32:12.906Z,81.90
2022-08-17T13:35:12.900Z,82.20
2022-08-17T13:37:40.649Z,82.20
2022-08-17T13:40:09.768Z,82.10
2022-08-17T13:42:52.001Z,82.00
2022-08-17T13:45:36.503Z,81.90
2022-08-17T13:48:16.201Z,82.00
2022-08-17T13:51:02.167Z,82.20
2022-08-17T13:53:40.161Z,82.70
2022-08-17T13:56:37.007Z,83.00
2022-08-17T13:59:13.903Z,83.40
2022-08-17T14:01:53.579Z,83.70
2022-08-17T14:04:27.966Z,83.70
2022-08-17T14:07:16.064Z,83.70
2022-08-17T14:09:49.423Z,83.40
2022-08-17T14:12:20.113Z,83.30
2022-08-17T14:14:47.201Z,83.30
2022-08-17T14:17:14.217Z,83.40
2022-08-17T14:19:41.992Z,83.50
2022-08-17T14:22:14.872Z,83.50
2022-08-17T14:24:44.834Z,83.40
2022-08-17T14:27:12.314Z,83.30
2022-08-17T14:29:41.315Z,83.20
2022-08-17T14:32:19.981Z,83.00
2022-08-17T14:34:49.644Z,82.60
2022-08-17T14:37:21.448Z,82.40
2022-08-17T14:39:48.586Z,82.60
2022-08-17T14:42:16.443Z,81.40
2022-08-17T14:44:43.330Z,80.40
2022-08-17T14:47:15.752Z,79.40
2022-08-17T14:49:43.863Z,79.00
2022-08-17T14:52:15.794Z,78.80
2022-08-17T14:54:46.066Z,78.90
2022-08-17T14:57:25.761Z,78.90
2022-08-17T15:00:00.827Z,78.10
2022-08-17T15:02:30.142Z,77.60
2022-08-17T15:05:06.113Z,77.50
2022-08-17T15:07:33.540Z,77.40
2022-08-17T15:10:06.566Z,76.60
2022-08-17T15:12:56.788Z,74.40
2022-08-17T15:16:04.464Z,71.90
2022-08-17T15:19:23.349Z,71.00
2022-08-17T15:21:51.573Z,70.70
2022-08-17T15:24:21.186Z,70.50
2022-08-17T15:26:48.574Z,70.00
2022-08-17T15:29:15.795Z,70.20
2022-08-17T15:31:43.242Z,70.30
2022-08-17T15:34:16.374Z,70.40
2022-08-17T15:36:49.081Z,71.10
2022-08-17T15:39:19.566Z,72.00
2022-08-17T15:41:58.044Z,72.40
2022-08-17T15:44:30.369Z,72.90
2022-08-17T15:47:41.970Z,72.90
2022-08-17T15:50:19.487Z,73.20
2022-08-17T15:52:47.611Z,72.50
2022-08-17T15:55:15.625Z,71.60
2022-08-17T15:57:42.619Z,71.60
2022-08-17T16:00:11.162Z,72.00
2022-08-17T16:03:20.351Z,72.00
2022-08-17T16:05:31.255Z,72.20
2022-08-17T16:07:59.647Z,72.80
2022-08-17T16:10:35.599Z,73.20
2022-08-17T16:13:04.445Z,73.60
2022-08-17T16:15:34.734Z,73.80
2022-08-17T16:18:07.864Z,74.00
2022-08-17T16:20:35.030Z,74.30
2022-08-17T16:23:03.164Z,74.60
2022-08-17T16:25:51.962Z,74.80
2022-08-17T16:28:35.751Z,75.10
2022-08-17T16:31:08.019Z,75.30
2022-08-17T16:33:37.719Z,75.40
2022-08-17T16:36:07.362Z,75.40
2022-08-17T16:38:35.871Z,76.20
2022-08-17T16:41:08.831Z,77.40
2022-08-17T16:43:36.063Z,78.40
2022-08-17T16:46:02.999Z,79.60
2022-08-17T16:48:30.558Z,80.00
2022-08-17T16:51:04.001Z,80.40
2022-08-17T16:53:31.780Z,80.80
2022-08-17T16:55:58.844Z,81.10
2022-08-17T16:58:25.968Z,81.10
2022-08-17T17:00:54.367Z,82.00
2022-08-17T17:03:25.959Z,81.60
2022-08-17T17:06:25.697Z,81.60
2022-08-17T17:09:05.622Z,81.90
2022-08-17T17:11:43.962Z,82.10
2022-08-17T17:14:17.026Z,82.30
2022-08-17T17:16:52.558Z,82.60
2022-08-17T17:19:52.755Z,82.60
2022-08-17T17:22:43.503Z,82.50
2022-08-17T17:25:39.707Z,82.30
2022-08-17T17:28:50.139Z,82.30
2022-08-17T17:31:21.464Z,82.40
2022-08-17T17:34:03.924Z,82.50
2022-08-17T17:36:53.999Z,82.40
2022-08-17T17:39:51.395Z,82.40
2022-08-17T17:42:25.165Z,82.40
2022-08-17T17:45:19.977Z,82.60
2022-08-17T17:47:49.932Z,82.80
2022-08-17T17:50:19.884Z,83.60
2022-08-17T17:53:07.657Z,82.90
2022-08-17T17:55:49.909Z,83.00
2022-08-17T17:58:37.159Z,83.00
2022-08-17T18:01:14.398Z,83.10
2022-08-17T18:04:38.109Z,83.30
2022-08-17T18:07:32.448Z,83.30
2022-08-17T18:10:29.798Z,83.40
2022-08-17T18:13:22.894Z,83.40
2022-08-17T18:15:54.595Z,83.40
2022-08-17T18:18:37.788Z,83.50
2022-08-17T18:21:17.059Z,83.40
2022-08-17T18:24:00.971Z,83.50
2022-08-17T18:26:34.486Z,83.40
2022-08-17T18:29:13.233Z,83.50
2022-08-17T18:31:40.297Z,83.70
2022-08-17T18:37:21.743Z,83.70
2022-08-17T18:39:48.832Z,83.90
2022-08-17T18:42:28.593Z,84.00
2022-08-17T18:44:56.483Z,84.10
2022-08-17T18:47:26.206Z,84.30
2022-08-17T18:49:57.873Z,84.30
2022-08-17T18:52:31.158Z,84.40
2022-08-17T18:55:09.083Z,84.70
2022-08-17T18:57:40.697Z,84.80
2022-08-17T19:00:18.945Z,85.50
2022-08-17T19:03:02.849Z,85.10
2022-08-17T19:05:39.804Z,85.20
2022-08-17T19:08:34.901Z,85.70
2022-08-17T19:11:04.246Z,85.70
2022-08-17T19:13:34.057Z,86.00
2022-08-17T19:16:13.847Z,86.10
2022-08-17T19:18:45.818Z,86.30
2022-08-17T19:21:21.237Z,86.50
2022-08-17T19:24:05.137Z,86.60
2022-08-17T19:26:54.709Z,86.80
2022-08-17T19:29:45.277Z,86.80
2022-08-17T19:32:14.918Z,86.80
2022-08-17T19:34:44.486Z,86.90
2022-08-17T19:37:50.396Z,86.90
2022-08-17T19:40:52.186Z,86.90
2022-08-17T19:43:36.640Z,86.90
2022-08-17T19:46:14.179Z,87.00
2022-08-17T19:49:00.467Z,87.00
2022-08-17T19:51:58.302Z,87.00
2022-08-17T19:54:38.485Z,87.20
2022-08-17T19:57:21.625Z,87.20
2022-08-17T19:59:51.759Z,87.30
2022-08-17T20:02:33.705Z,87.30
2022-08-17T20:05:07.302Z,87.40
2022-08-17T20:07:55.666Z,87.50
2022-08-17T20:10:48.143Z,87.50
2022-08-17T20:13:33.505Z,87.70
2022-08-17T20:16:02.777Z,87.70
2022-08-17T20:19:04.044Z,87.70
2022-08-17T20:21:45.138Z,87.90
2022-08-17T20:24:47.548Z,87.90
2022-08-17T20:27:31.630Z,87.80
2022-08-17T20:30:34.761Z,87.90
2022-08-17T20:33:02.722Z,88.00
2022-08-17T20:35:38.613Z,87.90
2022-08-17T20:38:33.634Z,87.80
2022-08-17T20:41:01.164Z,87.70
2022-08-17T20:43:34.350Z,87.80
2022-08-17T20:46:13.257Z,87.90
2022-08-17T20:48:45.245Z,87.90
2022-08-17T20:51:18.205Z,88.10
2022-08-17T20:53:48.400Z,88.10
2022-08-17T20:56:45.035Z,88.30
2022-08-17T20:59:21.352Z,88.40
2022-08-17T21:02:12.413Z,88.60
2022-08-17T21:04:53.048Z,88.60
2022-08-17T21:07:29.197Z,88.80
2022-08-17T21:10:25.628Z,88.80
2022-08-17T21:13:23.662Z,88.80
2022-08-17T21:16:09.186Z,89.10
2022-08-17T21:18:41.711Z,89.00
2022-08-17T21:21:48.533Z,89.00
2022-08-17T21:24:32.343Z,89.00
2022-08-17T21:27:10.256Z,89.00
2022-08-17T21:30:11.911Z,89.10
2022-08-17T21:32:42.020Z,89.10
2022-08-17T21:35:21.415Z,89.20
2022-08-17T21:37:53.281Z,89.30
2022-08-17T21:40:29.740Z,89.40
2022-08-17T21:43:08.379Z,89.40
2022-08-17T21:45:41.688Z,89.50
2022-08-17T21:48:16.997Z,89.50
2022-08-17T21:50:57.812Z,89.50
2022-08-17T21:53:38.581Z,89.40
2022-08-17T21:56:07.226Z,89.10
2022-08-17T21:58:48.568Z,89.00
2022-08-17T22:01:23.470Z,88.90
2022-08-17T22:04:00.484Z,88.80
2022-08-17T22:06:34.515Z,88.80
2022-08-17T22:09:35.836Z,88.70
2022-08-17T22:12:17.210Z,88.60
2022-08-17T22:15:06.066Z,88.80
2022-08-17T22:17:40.586Z,88.80
2022-08-17T22:20:14.534Z,88.80
2022-08-17T22:23:09.246Z,88.80
2022-08-17T22:25:56.596Z,88.80
2022-08-17T22:28:45.684Z,88.80
2022-08-17T22:31:22.566Z,88.60
2022-08-17T22:34:01.762Z,88.80
2022-08-17T22:36:36.712Z,89.00
2022-08-17T22:39:10.012Z,89.20
2022-08-17T22:41:57.197Z,89.20
2022-08-17T22:44:35.678Z,89.10
2022-08-17T22:47:15.032Z,89.10
2022-08-17T22:49:57.850Z,89.20
2022-08-17T22:53:00.869Z,89.20
2022-08-17T22:55:50.082Z,89.20
2022-08-17T22:58:41.585Z,89.20
2022-08-17T23:01:32.799Z,89.10
2022-08-17T23:04:09.790Z,89.00
2022-08-17T23:06:45.696Z,89.10
2022-08-17T23:09:15.011Z,89.20
2022-08-17T23:11:50.732Z,89.20
2022-08-17T23:14:24.816Z,89.10
2022-08-17T23:16:56.439Z,89.10
2022-08-17T23:19:23.611Z,89.10
2022-08-17T23:21:57.479Z,89.10
2022-08-17T23:24:27.130Z,89.10
2022-08-17T23:26:57.414Z,89.20
2022-08-17T23:29:25.946Z,89.30
2022-08-17T23:31:53.080Z,89.40
2022-08-17T23:34:20.097Z,89.40
2022-08-17T23:36:52.800Z,89.60
2022-08-17T23:39:24.534Z,89.60
2022-08-17T23:41:55.770Z,89.60
2022-08-17T23:44:23.563Z,89.60
2022-08-17T23:46:52.086Z,89.50
2022-08-17T23:49:24.442Z,89.40
2022-08-17T23:51:55.287Z,89.40
2022-08-17T23:54:30.670Z,89.30
2022-08-17T23:56:57.708Z,89.20
2022-08-17T23:59:24.648Z,89.20
